Weather History for Newport, RI

Change the Weather History Date:

Thursday, October 13, 2011

  Actual Average Record
Temperature  
Mean Temperature 62 °F -  
Max Temperature 66 °F 63 °F 72 °F (1968)
Min Temperature 57 °F 49 °F 35 °F (1981)
Degree Days  
Heating Degree Days 4    
Growing Degree Days 12 (Base 50)    
Moisture  
Dew Point 61 °F    
Average Humidity 100    
Maximum Humidity 100    
Minimum Humidity 96    
Precipitation  
Precipitation 1.00 in - - ()
Sea Level Pressure  
Sea Level Pressure 29.85 in    
Wind  
Wind Speed 8 mph (NNE)    
Max Wind Speed 16 mph    
Max Gust Speed 24 mph    
Visibility 3 miles    
Events Rain    
Averages and records for this station are not official NWS values.
T = Trace of Precipitation, MM = Missing Value Source: NWS Daily Summary

Daily Weather History Graph

Daily Weather History Graph

Search for Another Location

Airport:

Trip Planner

Search our weather history database for the weather conditions in past years. The results will help you decide how hot, cold, wet, or windy it might be!

Date:

Astronomy

Oct. 13, 2011 Rise Set
Actual Time 6:54 AM EDT 6:07 PM EDT
Civil Twilight 6:26 AM EDT 6:35 PM EDT
Nautical Twilight 5:54 AM EDT 7:07 PM EDT
Astronomical Twilight 5:22 AM EDT 7:39 PM EDT
Moon 6:39 PM EDT (10/13) 8:25 AM EDT (10/13)
Length of Visible Light 12h 08m
Length of Day
11h 13m
Full, 98% of the Moon is Illuminated
Oct 13
Full
Oct 19
Last Quarter
Oct 26
New
Nov 2
First Quarter
Nov 10
Full

Hourly Weather History & Observations

Time (EDT) Temp. Dew Point Humidity Pressure Visibility Wind Dir Wind Speed Gust Speed Precip Events Conditions
12:46 AM 57.2 °F 57.2 °F 100% 30.00 in 2.5 mi ENE 8.1 mph - 0.01 in Rain Rain
12:53 AM 57.9 °F 57.9 °F 100% 29.99 in 2.5 mi ENE 9.2 mph - 0.02 in Rain Rain
1:15 AM 57.2 °F 57.2 °F 100% 29.99 in 3.0 mi ENE 8.1 mph - 0.02 in Rain Light Rain
1:33 AM 57.2 °F 57.2 °F 100% 29.98 in 3.0 mi ENE 9.2 mph - 0.03 in Rain Light Rain
1:53 AM 59.0 °F 59.0 °F 100% 29.97 in 4.0 mi ENE 8.1 mph - 0.03 in Rain Light Rain
2:01 AM 59.0 °F 59.0 °F 100% 29.97 in 3.0 mi ENE 9.2 mph - 0.00 in Rain Light Rain
2:10 AM 59.0 °F 59.0 °F 100% 29.96 in 2.0 mi ENE 9.2 mph - 0.01 in Rain Rain
2:17 AM 59.0 °F 59.0 °F 100% 29.96 in 2.0 mi ENE 8.1 mph - 0.02 in Rain Rain
2:44 AM 59.0 °F 59.0 °F 100% 29.94 in 3.0 mi ENE 10.4 mph - 0.03 in Rain Light Rain
2:53 AM 59.0 °F 59.0 °F 100% 29.94 in 3.0 mi ENE 9.2 mph - 0.04 in Rain Light Rain
3:10 AM 59.0 °F 59.0 °F 100% 29.94 in 2.5 mi ENE 8.1 mph - 0.02 in Rain Rain
3:19 AM 59.0 °F 59.0 °F 100% 29.93 in 2.0 mi ENE 8.1 mph - 0.05 in Rain Heavy Rain
3:35 AM 59.0 °F 59.0 °F 100% 29.91 in 3.0 mi ENE 10.4 mph - 0.11 in Rain Heavy Rain
3:50 AM 59.0 °F 59.0 °F 100% 29.91 in 3.0 mi ENE 8.1 mph - 0.18 in Rain Heavy Rain
3:53 AM 59.0 °F 59.0 °F 100% 29.91 in 3.0 mi ENE 10.4 mph - 0.20 in Rain Heavy Rain
4:22 AM 59.0 °F 59.0 °F 100% 29.89 in 10.0 mi ENE 11.5 mph - 0.03 in Rain Light Rain
4:41 AM 59.0 °F 59.0 °F 100% 29.89 in 10.0 mi ENE 8.1 mph 16.1 mph 0.03 in Rain Light Rain
4:53 AM 59.0 °F 59.0 °F 100% 29.88 in 10.0 mi ENE 9.2 mph - 0.03 in Rain Light Rain
5:53 AM 60.1 °F 60.1 °F 100% 29.87 in 6.0 mi ENE 8.1 mph - 0.02 in Rain Light Rain
6:14 AM 60.8 °F 60.8 °F 100% 29.87 in 1.8 mi NE 5.8 mph - 0.15 in Rain Heavy Rain
6:27 AM 60.8 °F 60.8 °F 100% 29.88 in 2.0 mi NNE 6.9 mph - 0.30 in Rain Heavy Rain
6:43 AM 60.8 °F 60.8 °F 100% 29.86 in 3.0 mi NE 9.2 mph - 0.38 in Rain Heavy Rain
6:53 AM 61.0 °F 61.0 °F 100% 29.86 in 1.8 mi NNE 8.1 mph - 0.51 in Rain Heavy Rain
7:02 AM 60.8 °F 60.8 °F 100% 29.86 in 3.0 mi North 8.1 mph - 0.01 in Rain Light Rain
7:19 AM 60.8 °F 60.8 °F 100% 29.87 in 4.0 mi NNW 5.8 mph - 0.04 in Rain Rain
7:29 AM 60.8 °F 60.8 °F 100% 29.84 in 2.0 mi NE 12.7 mph - 0.12 in Rain Heavy Rain
7:37 AM 60.8 °F 60.8 °F 100% 29.82 in 3.0 mi NE 16.1 mph - 0.13 in Rain Heavy Rain
7:53 AM 61.0 °F 61.0 °F 100% 29.83 in 4.0 mi Variable 4.6 mph 24.2 mph 0.14 in Rain Light Rain
8:01 AM 60.8 °F 60.8 °F 100% 29.86 in 9.0 mi West 3.5 mph - 0.00 in Rain Light Rain
8:14 AM 60.8 °F 60.8 °F 100% 29.86 in 10.0 mi NNW 6.9 mph - 0.00 in Rain Light Rain
8:50 AM 60.8 °F 60.8 °F 100% 29.86 in 2.5 mi North 5.8 mph - 0.01 in Rain Light Rain
8:53 AM 61.0 °F 61.0 °F 100% 29.86 in 3.0 mi North 4.6 mph - 0.01 in Rain Light Rain
9:30 AM 62.6 °F 62.6 °F 100% 29.84 in 2.5 mi NNE 6.9 mph - 0.00 in Rain Light Rain
9:39 AM 62.6 °F 62.6 °F 100% 29.84 in 2.5 mi NNE 8.1 mph - 0.00 in   Overcast
9:46 AM 62.6 °F 62.6 °F 100% 29.84 in 3.0 mi NNE 6.9 mph - 0.00 in   Overcast
10:35 AM 62.6 °F 62.6 °F 100% 29.82 in 2.5 mi North 4.6 mph - 0.00 in Rain Light Rain
10:53 AM 63.0 °F 63.0 °F 100% 29.81 in 1.5 mi North 8.1 mph - 0.00 in   Overcast
11:19 AM 62.6 °F 62.6 °F 100% 29.81 in 2.0 mi North 5.8 mph - N/A   Overcast
11:28 AM 62.6 °F 62.6 °F 100% 29.81 in 1.8 mi North 8.1 mph - N/A   Overcast
11:53 AM 64.0 °F 63.0 °F 96% 29.80 in 1.5 mi North 9.2 mph - N/A   Overcast
12:29 PM 64.4 °F 64.4 °F 100% 29.80 in 2.0 mi North 8.1 mph - N/A   Overcast
12:50 PM 64.4 °F 64.4 °F 100% 29.79 in 1.8 mi North 8.1 mph - N/A   Overcast
12:53 PM 64.9 °F 64.9 °F 100% 29.79 in 1.8 mi North 9.2 mph - N/A   Overcast
1:34 PM 64.4 °F 64.4 °F 100% 29.78 in 2.0 mi North 8.1 mph - N/A   Overcast
1:53 PM 66.0 °F 66.0 °F 100% 29.77 in 3.0 mi North 5.8 mph - N/A   Overcast
2:29 PM 64.4 °F 64.4 °F 100% 29.78 in 2.5 mi NNW 8.1 mph - N/A   Overcast
2:53 PM 64.9 °F 64.9 °F 100% 29.76 in 1.0 mi North 8.1 mph - N/A   Overcast
3:42 PM 64.4 °F 64.4 °F 100% 29.76 in 2.0 mi North 5.8 mph - N/A   Overcast
3:53 PM 64.9 °F 64.9 °F 100% 29.75 in 1.5 mi North 6.9 mph - N/A   Overcast
4:53 PM 64.0 °F 64.0 °F 100% 29.76 in 1.2 mi NNW 5.8 mph - N/A   Overcast
5:53 PM 63.0 °F 63.0 °F 100% 29.78 in 1.5 mi Variable 5.8 mph - N/A   Overcast
6:32 PM 62.6 °F 62.6 °F 100% 29.78 in 2.0 mi North 6.9 mph - N/A   Overcast
6:53 PM 63.0 °F 63.0 °F 100% 29.78 in 3.0 mi North 6.9 mph - N/A   Overcast
7:45 PM 62.6 °F 62.6 °F 100% 29.80 in 2.5 mi North 6.9 mph - N/A   Overcast
8:15 PM 62.6 °F 62.6 °F 100% 29.81 in 4.0 mi North 3.5 mph - N/A   Overcast
8:35 PM 62.6 °F 62.6 °F 100% 29.81 in 2.5 mi NNE 4.6 mph - N/A   Overcast
8:53 PM 62.1 °F 62.1 °F 100% 29.80 in 3.0 mi NNE 3.5 mph - N/A   Overcast
9:04 PM 62.6 °F 62.6 °F 100% 29.81 in 3.0 mi Calm Calm - N/A   Overcast
9:53 PM 62.1 °F 62.1 °F 100% 29.81 in 3.0 mi NNE 4.6 mph - N/A   Overcast
10:15 PM 62.6 °F 62.6 °F 100% 29.81 in 2.5 mi NNE 3.5 mph - N/A   Overcast
10:53 PM 62.1 °F 62.1 °F 100% 29.80 in 2.0 mi NNE 4.6 mph - N/A   Overcast
11:53 PM 61.0 °F 61.0 °F 100% 29.78 in 2.5 mi NNE 3.5 mph - N/A   Overcast